createdAt,value
2019-01-04T00:00:39.700Z,6.75
2019-01-04T00:01:45.343Z,21.73
2019-01-04T00:02:50.524Z,16.80
2019-01-04T00:03:55.108Z,6.28
2019-01-04T00:05:00.269Z,8.83
2019-01-04T00:06:04.854Z,10.25
2019-01-04T00:07:09.422Z,7.10
2019-01-04T00:08:13.982Z,8.98
2019-01-04T00:09:18.585Z,13.90
2019-01-04T00:10:23.172Z,14.13
2019-01-04T00:11:27.786Z,8.80
2019-01-04T00:12:32.560Z,9.58
2019-01-04T00:13:37.260Z,16.10
2019-01-04T00:14:41.807Z,29.75
2019-01-04T00:15:48.044Z,17.25
2019-01-04T00:16:52.620Z,9.58
2019-01-04T00:17:57.288Z,15.20
2019-01-04T00:19:01.971Z,11.83
2019-01-04T00:20:07.908Z,18.20
2019-01-04T00:21:12.525Z,39.20
2019-01-04T00:22:17.225Z,13.40
2019-01-04T00:23:21.844Z,20.55
2019-01-04T00:24:26.479Z,29.65
2019-01-04T00:25:31.077Z,60.58
2019-01-04T00:26:35.632Z,16.17
2019-01-04T00:27:40.187Z,29.98
2019-01-04T00:28:44.738Z,45.50
2019-01-04T00:29:49.338Z,17.05
2019-01-04T00:30:53.907Z,31.30
2019-01-04T00:31:59.900Z,19.10
2019-01-04T00:33:04.501Z,29.95
2019-01-04T00:34:09.064Z,17.52
2019-01-04T00:35:14.690Z,12.55
2019-01-04T00:36:19.295Z,6.75
2019-01-04T00:37:23.844Z,10.30
2019-01-04T00:38:28.500Z,12.30
2019-01-04T00:39:33.292Z,19.17
2019-01-04T00:40:37.964Z,18.37
2019-01-04T00:41:43.954Z,10.55
2019-01-04T00:42:48.495Z,17.95
2019-01-04T00:43:53.112Z,13.30
2019-01-04T00:44:57.797Z,9.45
2019-01-04T00:46:02.394Z,19.27
2019-01-04T00:47:07.058Z,22.22
2019-01-04T00:48:11.739Z,14.33
2019-01-04T00:49:16.291Z,13.35
2019-01-04T00:50:20.856Z,13.80
2019-01-04T00:51:25.414Z,9.83
2019-01-04T00:52:30.008Z,12.03
2019-01-04T00:53:34.544Z,10.13
2019-01-04T00:54:39.971Z,6.70
2019-01-04T00:56:20.943Z,9.10
2019-01-04T00:57:59.156Z,9.13
2019-01-04T00:59:31.105Z,7.78
2019-01-04T01:01:07.088Z,16.40
2019-01-04T01:02:45.657Z,10.23
2019-01-04T01:04:30.022Z,9.58
2019-01-04T01:06:06.657Z,10.95
2019-01-04T01:07:42.110Z,11.20
2019-01-04T01:09:12.587Z,8.70
2019-01-04T01:10:52.950Z,9.98
2019-01-04T01:12:41.987Z,11.85
2019-01-04T01:14:19.730Z,8.45
2019-01-04T01:16:03.025Z,13.78
2019-01-04T01:17:33.907Z,11.18
2019-01-04T01:19:03.996Z,9.58
2019-01-04T01:20:31.895Z,9.43
2019-01-04T01:22:12.175Z,13.35
2019-01-04T01:23:42.955Z,11.78
2019-01-04T01:25:23.980Z,10.78
2019-01-04T01:27:39.973Z,10.18
2019-01-04T01:29:03.321Z,8.93
2019-01-04T01:30:51.210Z,9.73
2019-01-04T01:31:55.372Z,11.38
2019-01-04T01:33:18.360Z,10.10
2019-01-04T01:34:57.439Z,10.18
2019-01-04T01:36:27.046Z,14.53
2019-01-04T01:38:07.206Z,9.28
2019-01-04T01:39:32.554Z,17.73
2019-01-04T01:41:15.850Z,15.18
2019-01-04T01:43:07.387Z,8.75
2019-01-04T01:44:48.455Z,9.28
2019-01-04T01:46:14.796Z,13.55
2019-01-04T01:47:46.611Z,8.30
2019-01-04T01:49:45.997Z,7.47
2019-01-04T01:51:27.762Z,7.75
2019-01-04T01:52:44.713Z,5.55
2019-01-04T01:53:49.239Z,6.17
2019-01-04T01:54:53.812Z,5.70
2019-01-04T01:55:58.364Z,10.20
2019-01-04T01:57:02.932Z,6.17
2019-01-04T01:58:07.574Z,8.30
2019-01-04T01:59:12.224Z,7.60
2019-01-04T02:00:16.861Z,5.33
2019-01-04T02:01:21.453Z,6.90
2019-01-04T02:02:26.034Z,10.45
2019-01-04T02:03:30.619Z,7.83
2019-01-04T02:04:35.194Z,6.22
2019-01-04T02:05:39.766Z,11.75
2019-01-04T02:06:44.338Z,5.37
2019-01-04T02:07:48.994Z,5.85
2019-01-04T02:08:53.611Z,5.90
2019-01-04T02:09:58.134Z,5.95
2019-01-04T02:11:02.662Z,5.15
2019-01-04T02:12:07.181Z,5.10
2019-01-04T02:13:11.763Z,4.03
2019-01-04T02:14:16.350Z,5.80
2019-01-04T02:15:20.955Z,9.78
2019-01-04T02:16:25.536Z,4.20
2019-01-04T02:17:30.295Z,8.63
2019-01-04T02:18:34.901Z,12.35
2019-01-04T02:19:39.408Z,5.35
2019-01-04T02:20:43.985Z,4.30
2019-01-04T02:21:48.511Z,5.47
2019-01-04T02:22:53.107Z,3.10
2019-01-04T02:23:57.656Z,7.50
2019-01-04T02:25:02.259Z,11.28
2019-01-04T02:26:06.855Z,5.75
2019-01-04T02:27:11.400Z,3.92
2019-01-04T02:28:15.990Z,5.03
2019-01-04T02:29:20.542Z,10.65
2019-01-04T02:30:25.092Z,5.97
2019-01-04T02:31:29.658Z,5.33
2019-01-04T02:32:34.286Z,4.15
2019-01-04T02:33:38.839Z,5.00
2019-01-04T02:34:43.393Z,5.45
2019-01-04T02:35:47.965Z,5.08
2019-01-04T02:36:52.564Z,4.85
2019-01-04T02:37:57.079Z,2.40
2019-01-04T02:39:01.656Z,3.10
2019-01-04T02:40:06.356Z,4.90
2019-01-04T02:41:10.899Z,6.00
2019-01-04T02:42:15.477Z,3.47
2019-01-04T02:43:20.063Z,3.77
2019-01-04T02:44:24.669Z,6.22
2019-01-04T02:45:29.340Z,7.35
2019-01-04T02:46:33.997Z,4.90
2019-01-04T02:47:38.670Z,14.93
2019-01-04T02:48:43.336Z,4.87
2019-01-04T02:49:47.946Z,6.08
2019-01-04T02:50:52.515Z,6.67
2019-01-04T02:51:57.096Z,6.40
2019-01-04T02:53:01.661Z,4.10
2019-01-04T02:54:06.335Z,7.15
2019-01-04T02:55:10.914Z,7.72
2019-01-04T02:56:15.556Z,4.90
2019-01-04T02:57:20.217Z,5.65
2019-01-04T02:58:24.819Z,10.95
2019-01-04T02:59:29.362Z,9.35
2019-01-04T03:00:33.986Z,7.20
2019-01-04T03:01:38.543Z,11.80
2019-01-04T03:02:43.160Z,11.80
2019-01-04T03:03:47.703Z,8.58
2019-01-04T03:04:52.256Z,8.33
2019-01-04T03:05:56.885Z,9.43
2019-01-04T03:07:01.492Z,9.70
2019-01-04T03:08:06.055Z,16.27
2019-01-04T03:09:10.663Z,11.12
2019-01-04T03:10:15.219Z,8.55
2019-01-04T03:11:19.812Z,10.10
2019-01-04T03:12:24.570Z,11.12
2019-01-04T03:13:29.129Z,13.55
2019-01-04T03:14:33.675Z,10.98
2019-01-04T03:15:38.249Z,12.60
2019-01-04T03:16:42.783Z,14.63
2019-01-04T03:17:47.310Z,12.78
2019-01-04T03:18:51.913Z,11.48
2019-01-04T03:19:56.502Z,10.35
2019-01-04T03:21:01.150Z,12.05
2019-01-04T03:22:05.704Z,9.70
2019-01-04T03:23:10.280Z,13.95
2019-01-04T03:24:14.964Z,16.70
2019-01-04T03:25:19.523Z,12.78
2019-01-04T03:26:24.161Z,12.58
2019-01-04T03:27:28.740Z,9.98
2019-01-04T03:28:33.326Z,15.48
2019-01-04T03:29:37.954Z,7.85
2019-01-04T03:30:42.529Z,11.43
2019-01-04T03:31:47.077Z,7.22
2019-01-04T03:32:51.645Z,13.03
2019-01-04T03:33:56.198Z,11.35
2019-01-04T03:35:00.819Z,13.40
2019-01-04T03:36:05.356Z,9.28
2019-01-04T03:37:10.133Z,13.18
2019-01-04T03:38:14.683Z,8.70
2019-01-04T03:39:19.240Z,13.13
2019-01-04T03:40:23.767Z,10.63
2019-01-04T03:41:28.673Z,12.55
2019-01-04T03:42:33.405Z,10.93
2019-01-04T03:43:37.988Z,12.20
2019-01-04T03:44:42.543Z,14.35
2019-01-04T03:45:47.147Z,12.33
2019-01-04T03:46:52.564Z,15.48
2019-01-04T03:47:57.149Z,12.78
2019-01-04T03:49:01.675Z,10.40
2019-01-04T03:50:06.613Z,17.75
2019-01-04T03:51:11.200Z,12.23
2019-01-04T03:52:15.839Z,26.37
2019-01-04T03:53:20.524Z,14.10
2019-01-04T03:54:25.428Z,10.18
2019-01-04T03:55:30.954Z,10.48
2019-01-04T03:56:35.481Z,10.40
2019-01-04T03:57:40.107Z,10.98
2019-01-04T03:58:44.687Z,15.72
2019-01-04T03:59:49.285Z,22.07
2019-01-04T04:00:53.931Z,12.33
2019-01-04T04:01:58.471Z,11.05
2019-01-04T04:03:03.068Z,14.95
2019-01-04T04:04:07.737Z,18.95
2019-01-04T04:05:12.318Z,11.88
2019-01-04T04:06:16.886Z,15.70
2019-01-04T04:07:21.452Z,18.10
2019-01-04T04:08:26.041Z,16.95
2019-01-04T04:09:30.651Z,12.37
2019-01-04T04:10:35.260Z,15.98
2019-01-04T04:11:39.911Z,14.95
2019-01-04T04:12:44.611Z,13.40
2019-01-04T04:13:49.140Z,12.98
2019-01-04T04:14:53.753Z,11.05
2019-01-04T04:15:58.483Z,14.13
2019-01-04T04:17:03.066Z,11.93
2019-01-04T04:18:07.703Z,15.65
2019-01-04T04:19:12.324Z,23.20
2019-01-04T04:20:16.866Z,12.05
2019-01-04T04:21:22.971Z,20.08
2019-01-04T04:22:27.551Z,15.53
2019-01-04T04:23:32.231Z,19.80
2019-01-04T04:24:36.755Z,19.25
2019-01-04T04:25:41.290Z,18.02
2019-01-04T04:26:45.920Z,14.68
2019-01-04T04:27:50.491Z,15.03
2019-01-04T04:28:55.247Z,18.98
2019-01-04T04:29:59.799Z,21.42
2019-01-04T04:31:04.423Z,21.52
2019-01-04T04:32:09.002Z,21.30
2019-01-04T04:33:14.502Z,18.70
2019-01-04T04:34:19.175Z,15.20
2019-01-04T04:35:23.739Z,18.00
2019-01-04T04:36:28.343Z,19.45
2019-01-04T04:37:32.940Z,17.02
2019-01-04T04:38:37.468Z,18.40
2019-01-04T04:39:42.101Z,16.70
2019-01-04T04:40:46.648Z,18.70
2019-01-04T04:41:51.216Z,18.40
2019-01-04T04:42:55.743Z,18.95
2019-01-04T04:44:00.326Z,32.40
2019-01-04T04:45:05.152Z,25.48
2019-01-04T04:46:09.700Z,25.62
2019-01-04T04:47:14.283Z,20.17
2019-01-04T04:48:18.807Z,21.30
2019-01-04T04:49:23.406Z,22.50
2019-01-04T04:50:27.952Z,25.05
2019-01-04T04:51:32.507Z,23.32
2019-01-04T04:52:37.086Z,19.10
2019-01-04T04:53:41.648Z,28.35
2019-01-04T04:54:46.299Z,24.20
2019-01-04T04:55:50.924Z,21.27
2019-01-04T04:56:55.468Z,24.92
2019-01-04T04:58:00.028Z,28.20
2019-01-04T04:59:04.591Z,23.65
2019-01-04T05:00:09.451Z,26.62
2019-01-04T05:01:14.041Z,22.87
2019-01-04T05:02:18.597Z,31.55
2019-01-04T05:03:23.201Z,27.35
2019-01-04T05:04:27.816Z,28.62
2019-01-04T05:05:32.402Z,27.85
2019-01-04T05:06:36.974Z,29.90
2019-01-04T05:07:41.536Z,30.92
2019-01-04T05:08:46.128Z,28.47
2019-01-04T05:09:50.667Z,34.05
2019-01-04T05:10:55.267Z,28.77
2019-01-04T05:11:59.826Z,38.53
2019-01-04T05:13:04.383Z,37.78
2019-01-04T05:14:08.947Z,35.65
2019-01-04T05:15:13.488Z,31.10
2019-01-04T05:16:18.159Z,34.92
2019-01-04T05:17:22.777Z,36.93
2019-01-04T05:18:27.355Z,34.25
2019-01-04T05:19:31.912Z,34.70
2019-01-04T05:20:36.458Z,38.42
2019-01-04T05:21:41.030Z,39.65
2019-01-04T05:22:45.589Z,39.00
2019-01-04T05:23:50.134Z,34.43
2019-01-04T05:24:54.715Z,38.28
2019-01-04T05:25:59.344Z,34.55
2019-01-04T05:27:03.923Z,38.50
2019-01-04T05:28:08.490Z,49.05
2019-01-04T05:29:13.043Z,34.78
2019-01-04T05:30:17.616Z,35.10
2019-01-04T05:31:22.183Z,32.85
2019-01-04T05:32:26.773Z,35.95
2019-01-04T05:33:31.318Z,34.30
2019-01-04T05:34:35.883Z,33.85
2019-01-04T05:35:40.437Z,38.50
2019-01-04T05:36:45.000Z,35.38
2019-01-04T05:37:49.585Z,36.63
2019-01-04T05:38:54.140Z,35.03
2019-01-04T05:39:58.680Z,38.02
2019-01-04T05:41:03.260Z,38.75
2019-01-04T05:42:07.799Z,31.42
2019-01-04T05:43:12.363Z,38.83
2019-01-04T05:44:16.943Z,36.48
2019-01-04T05:45:21.515Z,39.45
2019-01-04T05:46:26.082Z,35.28
2019-01-04T05:47:30.658Z,41.90
2019-01-04T05:48:35.233Z,37.70
2019-01-04T05:49:39.775Z,41.95
2019-01-04T05:50:44.395Z,44.53
2019-01-04T05:51:48.941Z,36.93
2019-01-04T05:52:53.498Z,37.40
2019-01-04T05:53:58.014Z,39.70
2019-01-04T05:55:02.756Z,54.73
2019-01-04T05:56:07.303Z,36.63
2019-01-04T05:57:11.866Z,38.30
2019-01-04T05:58:16.423Z,34.83
2019-01-04T05:59:20.963Z,40.60
2019-01-04T06:00:25.533Z,36.95
2019-01-04T06:01:30.091Z,37.67
2019-01-04T06:02:34.644Z,37.73
2019-01-04T06:03:39.173Z,42.38
2019-01-04T06:04:43.762Z,34.67
2019-01-04T06:05:48.352Z,38.38
2019-01-04T06:06:52.900Z,34.18
2019-01-04T06:07:57.579Z,38.35
2019-01-04T06:09:02.130Z,36.17
2019-01-04T06:10:07.227Z,40.90
2019-01-04T06:11:11.781Z,36.17
2019-01-04T06:12:16.373Z,41.73
2019-01-04T06:13:20.959Z,42.65
2019-01-04T06:14:25.509Z,37.53
2019-01-04T06:15:30.073Z,34.60
2019-01-04T06:16:34.760Z,35.90
2019-01-04T06:17:39.339Z,36.68
2019-01-04T06:18:43.895Z,34.10
2019-01-04T06:19:48.434Z,39.53
2019-01-04T06:20:52.975Z,37.63
2019-01-04T06:21:57.547Z,36.53
2019-01-04T06:23:02.113Z,34.58
2019-01-04T06:24:06.762Z,31.05
2019-01-04T06:25:11.311Z,36.05
2019-01-04T06:26:15.875Z,33.20
2019-01-04T06:27:20.547Z,33.08
2019-01-04T06:28:25.162Z,37.23
2019-01-04T06:29:29.751Z,32.88
2019-01-04T06:30:34.380Z,38.65
2019-01-04T06:31:38.930Z,38.92
2019-01-04T06:32:43.840Z,36.48
2019-01-04T06:33:48.484Z,38.48
2019-01-04T06:34:53.059Z,36.83
2019-01-04T06:35:57.722Z,43.00
2019-01-04T06:37:02.310Z,30.65
2019-01-04T06:38:14.371Z,40.45
2019-01-04T06:39:18.210Z,35.83
2019-01-04T06:40:22.760Z,37.28
2019-01-04T06:41:27.329Z,32.00
2019-01-04T06:42:31.959Z,35.63
2019-01-04T06:43:36.721Z,36.30
2019-01-04T06:44:41.282Z,35.70
2019-01-04T06:45:46.050Z,31.73
2019-01-04T06:47:12.431Z,38.08
2019-01-04T06:48:16.998Z,32.33
2019-01-04T06:49:21.560Z,31.73
2019-01-04T06:50:26.155Z,35.35
2019-01-04T06:51:30.709Z,33.80
2019-01-04T06:52:35.323Z,32.60
2019-01-04T06:53:39.894Z,35.25
2019-01-04T06:55:41.146Z,31.23
2019-01-04T06:56:45.695Z,30.62
2019-01-04T06:57:53.985Z,32.60
2019-01-04T06:58:58.519Z,43.92
2019-01-04T07:00:03.079Z,34.90
2019-01-04T07:01:07.656Z,29.02
2019-01-04T07:02:12.249Z,34.58
2019-01-04T07:03:17.799Z,39.35
2019-01-04T07:04:22.378Z,36.00
2019-01-04T07:05:27.001Z,42.27
2019-01-04T07:06:31.729Z,37.70
2019-01-04T07:07:36.257Z,37.80
2019-01-04T07:08:43.168Z,30.32
2019-01-04T07:09:47.777Z,36.23
2019-01-04T07:10:52.363Z,39.25
2019-01-04T07:11:56.900Z,33.30
2019-01-04T07:13:01.525Z,35.73
2019-01-04T07:14:06.084Z,37.90
2019-01-04T07:15:10.679Z,33.08
2019-01-04T07:16:15.357Z,33.92
2019-01-04T07:17:19.914Z,36.08
2019-01-04T07:18:24.541Z,36.60
2019-01-04T07:19:29.220Z,39.35
2019-01-04T07:20:33.848Z,30.52
2019-01-04T07:21:38.434Z,34.45
2019-01-04T07:22:43.085Z,33.80
2019-01-04T07:23:47.663Z,33.35
2019-01-04T07:24:52.275Z,35.30
2019-01-04T07:25:56.995Z,32.88
2019-01-04T07:27:01.648Z,29.50
2019-01-04T07:28:06.382Z,28.45
2019-01-04T07:29:10.962Z,36.50
2019-01-04T07:30:15.706Z,31.70
2019-01-04T07:31:20.266Z,38.42
2019-01-04T07:32:24.889Z,36.58
2019-01-04T07:33:29.559Z,38.35
2019-01-04T07:34:34.551Z,33.35
2019-01-04T07:35:48.299Z,34.35
2019-01-04T07:36:53.151Z,36.35
2019-01-04T07:37:57.767Z,40.10
2019-01-04T07:39:04.708Z,39.55
2019-01-04T07:40:11.940Z,36.80
2019-01-04T07:41:16.609Z,34.75
2019-01-04T07:42:21.196Z,38.15
2019-01-04T07:43:25.769Z,40.73
2019-01-04T07:44:30.394Z,34.20
2019-01-04T07:45:35.224Z,42.10
2019-01-04T07:46:39.832Z,42.38
2019-01-04T07:47:44.467Z,38.45
2019-01-04T07:48:49.023Z,43.05
2019-01-04T07:49:53.698Z,43.00
2019-01-04T07:50:58.279Z,39.20
2019-01-04T07:52:03.043Z,40.23
2019-01-04T07:53:07.596Z,42.73
2019-01-04T07:54:12.178Z,37.58
2019-01-04T07:55:16.740Z,39.78
2019-01-04T07:56:21.318Z,44.80
2019-01-04T07:57:25.863Z,39.03
2019-01-04T07:58:30.406Z,44.15
2019-01-04T07:59:34.998Z,35.15
2019-01-04T08:00:39.554Z,48.83
2019-01-04T08:01:44.121Z,41.10
2019-01-04T08:02:49.905Z,37.42
2019-01-04T08:03:54.727Z,36.58
2019-01-04T08:04:59.298Z,45.58
2019-01-04T08:06:03.925Z,70.03
2019-01-04T08:07:08.626Z,45.95
2019-01-04T08:08:13.298Z,38.50
2019-01-04T08:09:17.887Z,40.73
2019-01-04T08:10:22.642Z,43.10
2019-01-04T08:11:27.287Z,39.95
2019-01-04T08:12:31.821Z,38.13
2019-01-04T08:13:36.615Z,32.65
2019-01-04T08:14:41.221Z,36.90
2019-01-04T08:15:45.855Z,35.60
2019-01-04T08:16:50.672Z,46.83
2019-01-04T08:17:55.300Z,39.90
2019-01-04T08:19:00.066Z,42.40
2019-01-04T08:20:05.823Z,43.63
2019-01-04T08:21:10.462Z,39.20
2019-01-04T08:22:15.090Z,146.77
2019-01-04T08:23:19.654Z,65.60
2019-01-04T08:24:24.202Z,42.40
2019-01-04T08:25:28.766Z,44.25
2019-01-04T08:26:33.344Z,42.88
2019-01-04T08:27:37.992Z,79.90
2019-01-04T08:28:42.683Z,49.48
2019-01-04T08:29:47.339Z,52.75
2019-01-04T08:30:51.894Z,39.55
2019-01-04T08:31:56.426Z,40.52
2019-01-04T08:33:00.997Z,35.63
2019-01-04T08:34:05.579Z,36.70
2019-01-04T08:35:10.258Z,56.65
2019-01-04T08:36:14.885Z,45.43
2019-01-04T08:37:19.519Z,38.15
2019-01-04T08:38:24.119Z,34.90
2019-01-04T08:39:28.710Z,42.38
2019-01-04T08:40:33.390Z,41.65
2019-01-04T08:41:39.078Z,34.92
2019-01-04T08:42:43.763Z,41.28
2019-01-04T08:43:48.640Z,48.45
2019-01-04T08:44:53.563Z,35.15
2019-01-04T08:45:58.187Z,34.55
2019-01-04T08:47:02.915Z,44.35
2019-01-04T08:48:07.572Z,34.10
2019-01-04T08:49:12.189Z,35.33
2019-01-04T08:50:17.486Z,40.08
2019-01-04T08:51:22.204Z,41.40
2019-01-04T08:52:26.809Z,54.80
2019-01-04T08:54:04.350Z,41.40
2019-01-04T08:55:11.410Z,42.67
2019-01-04T08:56:16.005Z,47.00
2019-01-04T08:57:20.663Z,39.00
2019-01-04T08:58:25.247Z,50.55
2019-01-04T08:59:29.893Z,34.48
2019-01-04T09:00:34.494Z,33.38
2019-01-04T09:01:39.048Z,34.83
2019-01-04T09:02:43.710Z,40.28
2019-01-04T09:03:48.312Z,34.90
2019-01-04T09:04:52.906Z,46.05
2019-01-04T09:05:57.490Z,38.13
2019-01-04T09:07:02.096Z,37.53
2019-01-04T09:08:06.714Z,39.25
2019-01-04T09:09:11.360Z,35.78
2019-01-04T09:10:15.941Z,34.18
2019-01-04T09:11:20.582Z,40.38
2019-01-04T09:12:25.167Z,32.10
2019-01-04T09:13:29.737Z,33.80
2019-01-04T09:14:34.265Z,36.33
2019-01-04T09:15:38.821Z,79.97
2019-01-04T09:16:43.393Z,43.20
2019-01-04T09:17:47.942Z,36.65
2019-01-04T09:18:52.631Z,32.13
2019-01-04T09:19:57.207Z,30.95
2019-01-04T09:21:01.800Z,31.30
2019-01-04T09:22:06.449Z,32.67
2019-01-04T09:23:11.168Z,32.65
2019-01-04T09:24:15.828Z,33.08
2019-01-04T09:25:20.446Z,31.45
2019-01-04T09:26:25.110Z,33.53
2019-01-04T09:27:29.724Z,33.67
2019-01-04T09:28:34.331Z,30.80
2019-01-04T09:29:38.913Z,30.80
2019-01-04T09:30:43.612Z,24.65
2019-01-04T09:31:49.151Z,37.45
2019-01-04T09:32:53.739Z,26.33
2019-01-04T09:33:58.347Z,34.38
2019-01-04T09:35:03.174Z,27.67
2019-01-04T09:36:07.728Z,28.67
2019-01-04T09:37:12.340Z,32.30
2019-01-04T09:38:16.970Z,33.65
2019-01-04T09:39:21.535Z,29.30
2019-01-04T09:40:26.169Z,30.70
2019-01-04T09:41:32.931Z,31.17
2019-01-04T09:42:37.600Z,29.40
2019-01-04T09:43:42.170Z,33.45
2019-01-04T09:44:46.926Z,48.68
2019-01-04T09:45:51.436Z,36.05
2019-01-04T09:46:56.100Z,67.82
2019-01-04T09:48:00.740Z,38.70
2019-01-04T09:49:06.515Z,44.85
2019-01-04T09:50:11.381Z,27.93
2019-01-04T09:51:16.169Z,29.00
2019-01-04T09:52:20.981Z,40.20
2019-01-04T09:53:25.651Z,26.25
2019-01-04T09:54:30.219Z,34.20
2019-01-04T09:55:34.833Z,30.37
2019-01-04T09:56:39.403Z,27.35
2019-01-04T09:57:44.003Z,51.33
2019-01-04T09:58:48.550Z,33.50
2019-01-04T09:59:53.118Z,40.73
2019-01-04T10:00:57.703Z,29.23
2019-01-04T10:02:02.354Z,27.55
2019-01-04T10:03:06.913Z,35.35
2019-01-04T10:04:11.469Z,30.57
2019-01-04T10:05:16.156Z,32.42
2019-01-04T10:06:20.872Z,28.23
2019-01-04T10:07:25.494Z,28.85
2019-01-04T10:08:30.155Z,32.93
2019-01-04T10:09:34.727Z,33.33
2019-01-04T10:10:39.443Z,26.87
2019-01-04T10:11:44.029Z,22.37
2019-01-04T10:12:48.597Z,23.85
2019-01-04T10:13:53.151Z,23.62
2019-01-04T10:14:57.698Z,24.07
2019-01-04T10:16:03.246Z,25.68
2019-01-04T10:17:07.906Z,32.23
2019-01-04T10:18:12.546Z,33.28
2019-01-04T10:19:17.116Z,31.90
2019-01-04T10:20:21.647Z,28.52
2019-01-04T10:21:26.228Z,25.60
2019-01-04T10:22:30.822Z,34.67
2019-01-04T10:23:35.414Z,29.90
2019-01-04T10:24:39.967Z,33.65
2019-01-04T10:25:44.502Z,26.00
2019-01-04T10:26:49.103Z,25.65
2019-01-04T10:27:53.710Z,27.25
2019-01-04T10:28:58.312Z,39.63
2019-01-04T10:30:02.933Z,30.40
2019-01-04T10:31:07.561Z,26.17
2019-01-04T10:32:12.135Z,26.57
2019-01-04T10:33:16.763Z,25.77
2019-01-04T10:34:21.419Z,32.95
2019-01-04T10:35:26.140Z,36.25
2019-01-04T10:36:30.891Z,27.45
2019-01-04T10:37:35.478Z,41.83
2019-01-04T10:38:40.184Z,27.70
2019-01-04T10:39:44.731Z,32.25
2019-01-04T10:40:49.467Z,31.62
2019-01-04T10:41:54.065Z,43.08
2019-01-04T10:42:58.759Z,30.92
2019-01-04T10:44:03.323Z,30.23
2019-01-04T10:45:07.976Z,31.12
2019-01-04T10:46:12.687Z,29.67
2019-01-04T10:47:17.244Z,26.50
2019-01-04T10:48:21.859Z,32.38
2019-01-04T10:49:26.442Z,26.62
2019-01-04T10:50:31.060Z,30.62
2019-01-04T10:51:35.696Z,29.18
2019-01-04T10:52:40.295Z,25.32
2019-01-04T10:53:44.899Z,28.20
2019-01-04T10:54:49.539Z,28.62
2019-01-04T10:55:54.121Z,27.25
2019-01-04T10:56:58.664Z,27.32
2019-01-04T10:58:03.211Z,26.15
2019-01-04T10:59:07.804Z,27.00
2019-01-04T11:00:12.579Z,26.68
2019-01-04T11:01:17.156Z,27.58
2019-01-04T11:02:21.708Z,25.25
2019-01-04T11:03:26.262Z,29.67
2019-01-04T11:04:30.825Z,22.73
2019-01-04T11:05:35.411Z,24.57
2019-01-04T11:06:40.015Z,27.90
2019-01-04T11:07:44.609Z,25.10
2019-01-04T11:08:49.270Z,23.22
2019-01-04T11:09:53.870Z,23.77
2019-01-04T11:10:58.435Z,26.15
2019-01-04T11:12:03.076Z,26.02
2019-01-04T11:13:07.750Z,23.55
2019-01-04T11:14:12.350Z,22.15
2019-01-04T11:15:17.116Z,22.42
2019-01-04T11:16:21.734Z,20.52
2019-01-04T11:17:26.434Z,21.48
2019-01-04T11:18:30.983Z,25.20
2019-01-04T11:19:35.578Z,21.35
2019-01-04T11:20:47.425Z,20.35
2019-01-04T11:21:53.564Z,24.20
2019-01-04T11:23:01.379Z,23.57
2019-01-04T11:25:05.512Z,22.65
2019-01-04T11:26:20.944Z,22.65
2019-01-04T11:27:31.268Z,20.95
2019-01-04T11:28:44.839Z,21.55
2019-01-04T11:30:27.357Z,21.55
2019-01-04T11:32:06.280Z,22.60
2019-01-04T11:33:20.794Z,25.00
2019-01-04T11:35:06.799Z,22.58
2019-01-04T11:36:46.011Z,20.62
2019-01-04T11:38:02.377Z,20.10
2019-01-04T11:39:36.930Z,17.92
2019-01-04T11:41:13.914Z,26.23
2019-01-04T11:42:33.868Z,20.17
2019-01-04T11:44:05.878Z,21.33
2019-01-04T11:45:26.615Z,21.10
2019-01-04T11:46:51.811Z,27.13
2019-01-04T11:48:15.302Z,19.62
2019-01-04T11:49:45.386Z,21.57
2019-01-04T11:51:13.066Z,22.70
2019-01-04T11:52:48.458Z,20.60
2019-01-04T11:53:54.144Z,20.12
2019-01-04T11:54:59.747Z,18.67
2019-01-04T11:56:04.414Z,20.88
2019-01-04T11:57:08.960Z,20.77
2019-01-04T11:58:13.625Z,21.45
2019-01-04T11:59:18.299Z,22.75
2019-01-04T12:00:22.915Z,19.15
2019-01-04T12:01:27.559Z,20.95
2019-01-04T12:02:32.216Z,18.25
2019-01-04T12:03:36.762Z,21.02
2019-01-04T12:04:41.341Z,19.50
2019-01-04T12:05:45.938Z,21.23
2019-01-04T12:06:50.539Z,18.25
2019-01-04T12:07:55.110Z,20.72
2019-01-04T12:08:59.686Z,21.93
2019-01-04T12:10:04.427Z,17.75
2019-01-04T12:11:09.026Z,17.40
2019-01-04T12:12:13.742Z,21.57
2019-01-04T12:13:18.409Z,21.62
2019-01-04T12:14:23.017Z,18.73
2019-01-04T12:15:27.587Z,21.73
2019-01-04T12:16:32.206Z,20.12
2019-01-04T12:17:36.867Z,15.90
2019-01-04T12:18:41.427Z,24.10
2019-01-04T12:19:46.006Z,17.40
2019-01-04T12:20:50.618Z,19.98
2019-01-04T12:21:55.203Z,24.05
2019-01-04T12:22:59.847Z,17.67
2019-01-04T12:24:04.664Z,18.98
2019-01-04T12:25:09.299Z,18.65
2019-01-04T12:26:13.858Z,24.27
2019-01-04T12:27:18.582Z,24.32
2019-01-04T12:28:23.115Z,19.05
2019-01-04T12:29:27.655Z,23.38
2019-01-04T12:30:32.255Z,15.72
2019-01-04T12:31:37.010Z,14.50
2019-01-04T12:32:41.634Z,15.15
2019-01-04T12:33:46.243Z,18.07
2019-01-04T12:34:50.836Z,16.87
2019-01-04T12:35:55.409Z,16.07
2019-01-04T12:36:59.943Z,18.65
2019-01-04T12:38:04.602Z,17.42
2019-01-04T12:39:09.186Z,21.90
2019-01-04T12:40:13.797Z,18.57
2019-01-04T12:41:18.390Z,16.93
2019-01-04T12:42:22.996Z,19.05
2019-01-04T12:43:27.562Z,16.97
2019-01-04T12:44:32.185Z,17.62
2019-01-04T12:45:36.783Z,17.70
2019-01-04T12:46:41.352Z,13.85
2019-01-04T12:47:45.968Z,14.38
2019-01-04T12:48:50.560Z,16.00
2019-01-04T12:49:55.148Z,19.62
2019-01-04T12:50:59.747Z,18.95
2019-01-04T12:52:04.437Z,16.75
2019-01-04T12:53:09.026Z,27.67
2019-01-04T12:54:13.643Z,15.03
2019-01-04T12:55:18.201Z,16.97
2019-01-04T12:56:22.822Z,19.40
2019-01-04T12:57:27.408Z,16.15
2019-01-04T12:58:31.976Z,19.65
2019-01-04T12:59:36.582Z,13.98
2019-01-04T13:00:41.123Z,17.10
2019-01-04T13:01:45.737Z,13.10
2019-01-04T13:02:50.279Z,15.40
2019-01-04T13:03:54.893Z,17.35
2019-01-04T13:04:59.463Z,12.98
2019-01-04T13:06:04.203Z,17.27
2019-01-04T13:07:09.801Z,20.12
2019-01-04T13:08:14.458Z,15.85
2019-01-04T13:09:18.994Z,12.13
2019-01-04T13:10:23.607Z,21.62
2019-01-04T13:11:28.190Z,13.62
2019-01-04T13:12:32.762Z,13.60
2019-01-04T13:13:37.318Z,12.85
2019-01-04T13:14:41.860Z,11.53
2019-01-04T13:15:46.488Z,18.07
2019-01-04T13:16:51.271Z,14.33
2019-01-04T13:17:55.840Z,12.93
2019-01-04T13:19:00.479Z,16.40
2019-01-04T13:20:05.415Z,14.85
2019-01-04T13:21:11.107Z,21.85
2019-01-04T13:22:15.687Z,15.70
2019-01-04T13:23:20.294Z,15.30
2019-01-04T13:24:24.821Z,17.98
2019-01-04T13:25:29.423Z,16.50
2019-01-04T13:26:34.025Z,18.42
2019-01-04T13:27:38.688Z,16.80
2019-01-04T13:28:43.260Z,17.05
2019-01-04T13:29:47.898Z,13.10
2019-01-04T13:30:52.444Z,14.60
2019-01-04T13:31:57.058Z,16.65
2019-01-04T13:33:01.610Z,16.95
2019-01-04T13:34:06.146Z,16.95
2019-01-04T13:35:10.683Z,14.98
2019-01-04T13:36:15.242Z,15.83
2019-01-04T13:37:19.883Z,14.43
2019-01-04T13:38:24.484Z,15.20
2019-01-04T13:39:29.024Z,15.90
2019-01-04T13:40:33.638Z,19.02
2019-01-04T13:41:38.221Z,17.62
2019-01-04T13:42:42.767Z,16.65
2019-01-04T13:43:47.298Z,16.73
2019-01-04T13:44:51.896Z,20.95
2019-01-04T13:45:56.552Z,18.42
2019-01-04T13:47:01.406Z,17.30
2019-01-04T13:48:06.020Z,19.48
2019-01-04T13:49:10.632Z,13.25
2019-01-04T13:50:15.196Z,11.57
2019-01-04T13:51:19.813Z,13.20
2019-01-04T13:52:24.412Z,13.50
2019-01-04T13:53:28.982Z,12.35
2019-01-04T13:54:33.581Z,13.90
2019-01-04T13:55:38.183Z,16.25
2019-01-04T13:56:42.747Z,12.82
2019-01-04T13:57:47.375Z,13.08
2019-01-04T13:58:51.907Z,14.05
2019-01-04T13:59:56.493Z,16.77
2019-01-04T14:01:01.044Z,14.38
2019-01-04T14:02:05.719Z,14.63
2019-01-04T14:03:10.296Z,12.30
2019-01-04T14:04:14.948Z,15.32
2019-01-04T14:05:19.531Z,17.87
2019-01-04T14:06:24.188Z,15.58
2019-01-04T14:07:28.758Z,14.00
2019-01-04T14:08:33.313Z,14.68
2019-01-04T14:09:37.862Z,17.80
2019-01-04T14:10:42.419Z,13.38
2019-01-04T14:11:47.048Z,14.33
2019-01-04T14:12:51.800Z,14.18
2019-01-04T14:13:56.356Z,11.70
2019-01-04T14:15:00.996Z,16.82
2019-01-04T14:16:05.539Z,17.20
2019-01-04T14:17:10.111Z,12.43
2019-01-04T14:18:14.693Z,10.78
2019-01-04T14:19:19.236Z,13.22
2019-01-04T14:20:23.783Z,13.88
2019-01-04T14:21:28.371Z,13.83
2019-01-04T14:22:32.947Z,15.35
2019-01-04T14:23:37.553Z,13.50
2019-01-04T14:24:42.134Z,10.55
2019-01-04T14:25:47.694Z,10.43